createdAt,value
2023-03-13T00:00:11.453Z,0.00
2023-03-13T00:05:16.241Z,0.00
2023-03-13T00:10:19.374Z,0.00
2023-03-13T00:15:22.377Z,0.00
2023-03-13T00:20:26.521Z,0.00
2023-03-13T00:25:29.268Z,0.00
2023-03-13T00:30:32.033Z,0.00
2023-03-13T00:35:36.177Z,0.00
2023-03-13T00:40:39.067Z,0.00
2023-03-13T00:45:41.851Z,0.00
2023-03-13T00:50:46.002Z,0.00
2023-03-13T00:55:53.300Z,0.00
2023-03-13T01:00:56.115Z,0.00
2023-03-13T01:06:01.107Z,0.00
2023-03-13T01:11:05.381Z,0.00
2023-03-13T01:16:10.193Z,0.00
2023-03-13T01:21:14.470Z,0.00
2023-03-13T01:26:17.471Z,0.00
2023-03-13T01:31:21.316Z,0.00
2023-03-13T01:36:25.669Z,0.00
2023-03-13T01:41:29.168Z,0.00
2023-03-13T01:46:32.091Z,0.00
2023-03-13T01:51:51.024Z,0.00
2023-03-13T01:56:55.229Z,0.00
2023-03-13T02:02:00.170Z,0.00
2023-03-13T02:07:06.268Z,0.00
2023-03-13T02:12:11.231Z,0.00
2023-03-13T02:17:14.869Z,0.00
2023-03-13T02:22:23.641Z,0.00
2023-03-13T02:27:28.258Z,0.00
2023-03-13T02:32:31.548Z,0.00
2023-03-13T02:37:34.535Z,0.00
2023-03-13T02:42:40.408Z,0.00
2023-03-13T02:47:43.429Z,0.00
2023-03-13T02:52:47.760Z,0.00
2023-03-13T02:57:52.688Z,0.00
2023-03-13T03:02:56.168Z,0.00
2023-03-13T03:07:59.087Z,0.00
2023-03-13T03:13:04.870Z,0.00
2023-03-13T03:18:07.724Z,0.00
2023-03-13T03:23:10.806Z,0.00
2023-03-13T03:28:15.104Z,0.00
2023-03-13T03:33:19.073Z,0.00
2023-03-13T03:38:21.952Z,0.00
2023-03-13T03:43:27.366Z,0.00
2023-03-13T03:48:31.771Z,0.00
2023-03-13T03:53:34.626Z,0.00
2023-03-13T03:58:39.119Z,0.00
2023-03-13T04:04:02.142Z,0.00
2023-03-13T04:09:05.220Z,0.00
2023-03-13T04:14:10.508Z,0.00
2023-03-13T04:19:13.694Z,0.00
2023-03-13T04:24:17.961Z,0.00
2023-03-13T04:29:22.959Z,0.00
2023-03-13T04:34:32.711Z,0.00
2023-03-13T04:39:44.666Z,0.00
2023-03-13T04:45:10.330Z,0.00
2023-03-13T04:50:25.284Z,0.00
2023-03-13T04:55:43.508Z,0.00
2023-03-13T05:01:13.904Z,0.00
2023-03-13T05:06:28.823Z,0.00
2023-03-13T05:11:58.325Z,0.00
2023-03-13T05:17:21.834Z,0.00
2023-03-13T05:22:43.222Z,0.00
2023-03-13T05:28:03.343Z,0.00
2023-03-13T05:33:16.351Z,0.00
2023-03-13T05:38:31.809Z,0.00
2023-03-13T05:43:48.117Z,0.00
2023-03-13T05:49:08.141Z,0.00
2023-03-13T05:54:40.149Z,0.00
2023-03-13T05:59:45.732Z,0.00
2023-03-13T06:05:15.508Z,0.00
2023-03-13T06:10:19.153Z,0.00
2023-03-13T06:15:22.071Z,0.00
2023-03-13T06:20:57.746Z,0.00
2023-03-13T06:26:01.341Z,0.00
2023-03-13T06:31:04.281Z,0.00
2023-03-13T06:36:09.388Z,0.00
2023-03-13T06:41:12.192Z,0.00
2023-03-13T06:46:17.602Z,0.00
2023-03-13T06:51:22.719Z,0.00
2023-03-13T06:56:25.647Z,0.00
2023-03-13T07:01:28.505Z,0.00
2023-03-13T07:06:32.661Z,0.00
2023-03-13T07:11:35.460Z,0.00
2023-03-13T07:16:38.546Z,0.00
2023-03-13T07:21:42.912Z,0.00
2023-03-13T07:27:01.878Z,0.00
2023-03-13T07:32:08.304Z,0.00
2023-03-13T07:37:12.756Z,0.00
2023-03-13T07:42:15.626Z,0.00
2023-03-13T07:47:18.527Z,0.00
2023-03-13T07:52:23.075Z,0.00
2023-03-13T07:57:25.856Z,0.00
2023-03-13T08:02:28.879Z,0.00
2023-03-13T08:07:33.106Z,0.00
2023-03-13T08:12:35.923Z,0.00
2023-03-13T08:17:38.790Z,0.00
2023-03-13T08:22:42.920Z,0.00
2023-03-13T08:27:45.801Z,0.00
2023-03-13T08:32:48.720Z,0.00
2023-03-13T08:37:53.094Z,0.00
2023-03-13T08:42:55.928Z,0.00
2023-03-13T08:47:58.789Z,0.00
2023-03-13T08:53:03.445Z,0.00
2023-03-13T08:58:06.218Z,0.00
2023-03-13T09:03:09.136Z,0.00
2023-03-13T09:08:13.288Z,0.00
2023-03-13T09:13:16.059Z,0.00
2023-03-13T09:18:18.899Z,0.00
2023-03-13T09:23:23.262Z,0.00
2023-03-13T09:28:26.558Z,0.00
2023-03-13T09:33:29.318Z,0.00
2023-03-13T09:38:33.513Z,0.20
2023-03-13T09:43:41.370Z,0.00
2023-03-13T09:48:44.906Z,0.00
2023-03-13T09:53:50.913Z,0.00
2023-03-13T09:58:55.792Z,0.40
2023-03-13T10:04:06.756Z,0.00
2023-03-13T10:09:21.455Z,0.20
2023-03-13T10:14:30.261Z,38.00
2023-03-13T10:19:34.040Z,46.25
2023-03-13T10:24:40.154Z,55.00
2023-03-13T10:29:43.000Z,76.00
2023-03-13T10:34:47.729Z,94.33
2023-03-13T10:39:52.275Z,114.75
2023-03-13T10:45:00.337Z,118.50
2023-03-13T10:50:03.296Z,143.33
2023-03-13T10:55:08.040Z,151.00
2023-03-13T11:00:28.953Z,160.25
2023-03-13T11:05:43.061Z,166.20
2023-03-13T11:10:57.439Z,159.50
2023-03-13T11:16:01.601Z,143.33
2023-03-13T11:21:17.725Z,134.75
2023-03-13T11:26:24.842Z,124.75
2023-03-13T11:31:30.682Z,115.25
2023-03-13T11:36:35.645Z,110.00
2023-03-13T11:41:49.403Z,104.25
2023-03-13T11:46:58.366Z,92.75
2023-03-13T11:52:06.435Z,88.67
2023-03-13T11:57:13.334Z,86.00
2023-03-13T12:02:19.380Z,84.00
2023-03-13T12:07:24.491Z,80.33
2023-03-13T12:12:34.946Z,77.50
2023-03-13T12:17:38.776Z,74.75
2023-03-13T12:22:43.953Z,74.25
2023-03-13T12:27:48.986Z,68.75
2023-03-13T12:32:55.707Z,64.25
2023-03-13T12:38:01.616Z,63.25
2023-03-13T12:43:10.356Z,64.50
2023-03-13T12:48:39.774Z,58.00
2023-03-13T12:54:08.705Z,52.75
2023-03-13T12:59:15.975Z,52.25
2023-03-13T13:04:19.526Z,50.50
2023-03-13T13:09:24.089Z,52.00
2023-03-13T13:14:59.119Z,47.50
2023-03-13T13:20:22.450Z,36.00
2023-03-13T13:25:35.236Z,19.50
2023-03-13T13:30:39.511Z,16.00
2023-03-13T13:35:42.541Z,52.50
2023-03-13T13:40:59.272Z,75.00
2023-03-13T13:46:06.033Z,104.75
2023-03-13T13:51:26.292Z,108.75
2023-03-13T13:56:31.318Z,129.50
2023-03-13T14:01:35.535Z,123.00
2023-03-13T14:06:38.964Z,112.50
2023-03-13T14:11:41.698Z,109.00
2023-03-13T14:16:47.309Z,101.75
2023-03-13T14:21:50.134Z,96.25
2023-03-13T14:26:52.924Z,96.50
2023-03-13T14:31:57.835Z,93.50
2023-03-13T14:37:17.386Z,90.67
2023-03-13T14:42:20.677Z,89.33
2023-03-13T14:47:25.987Z,84.33
2023-03-13T14:52:29.086Z,86.33
2023-03-13T14:57:32.369Z,80.00
2023-03-13T15:02:37.491Z,83.33
2023-03-13T15:07:41.274Z,81.67
2023-03-13T15:12:44.245Z,85.00
2023-03-13T15:17:48.422Z,81.00
2023-03-13T15:22:51.456Z,81.67
2023-03-13T15:27:54.283Z,78.33
2023-03-13T15:32:58.497Z,78.00
2023-03-13T15:38:02.004Z,74.00
2023-03-13T15:43:04.850Z,75.50
2023-03-13T15:48:15.779Z,75.25
2023-03-13T15:53:19.425Z,76.50
2023-03-13T15:58:22.366Z,72.50
2023-03-13T16:03:28.306Z,71.00
2023-03-13T16:08:36.562Z,73.25
2023-03-13T16:13:39.959Z,67.50
2023-03-13T16:18:44.539Z,33.50
2023-03-13T16:23:47.401Z,30.67
2023-03-13T16:28:50.271Z,38.75
2023-03-13T16:33:54.875Z,44.00
2023-03-13T16:38:58.165Z,44.00
2023-03-13T16:44:01.131Z,44.00
2023-03-13T16:49:05.464Z,45.00
2023-03-13T16:54:08.241Z,46.00
2023-03-13T16:59:13.406Z,45.75
2023-03-13T17:04:17.594Z,43.50
2023-03-13T17:09:20.382Z,43.00
2023-03-13T17:14:23.158Z,43.00
2023-03-13T17:19:27.276Z,43.00
2023-03-13T17:24:30.028Z,45.00
2023-03-13T17:29:32.847Z,44.00
2023-03-13T17:34:37.027Z,43.00
2023-03-13T17:39:39.882Z,43.50
2023-03-13T17:44:42.807Z,43.25
2023-03-13T17:49:47.093Z,42.00
2023-03-13T17:54:49.911Z,41.00
2023-03-13T17:59:52.692Z,41.00
2023-03-13T18:04:56.950Z,40.25
2023-03-13T18:09:59.883Z,40.00
2023-03-13T18:15:02.641Z,38.00
2023-03-13T18:20:10.719Z,37.00
2023-03-13T18:25:13.743Z,36.00
2023-03-13T18:30:17.886Z,37.00
2023-03-13T18:35:22.216Z,35.00
2023-03-13T18:40:25.982Z,34.00
2023-03-13T18:45:29.038Z,35.75
2023-03-13T18:50:33.350Z,32.50
2023-03-13T18:55:36.092Z,34.00
2023-03-13T19:00:39.068Z,33.00
2023-03-13T19:05:43.303Z,32.75
2023-03-13T19:10:46.456Z,33.50
2023-03-13T19:15:49.436Z,31.00
2023-03-13T19:20:53.565Z,29.00
2023-03-13T19:25:56.946Z,29.33
2023-03-13T19:30:59.743Z,29.67
2023-03-13T19:36:04.132Z,28.00
2023-03-13T19:41:07.214Z,29.00
2023-03-13T19:46:24.424Z,28.00
2023-03-13T19:51:29.408Z,25.00
2023-03-13T19:56:32.611Z,26.00
2023-03-13T20:01:35.516Z,25.00
2023-03-13T20:06:39.770Z,24.50
2023-03-13T20:11:42.659Z,24.00
2023-03-13T20:16:48.891Z,25.00
2023-03-13T20:21:53.215Z,24.50
2023-03-13T20:26:56.545Z,24.00
2023-03-13T20:32:01.249Z,24.00
2023-03-13T20:37:05.598Z,21.50
2023-03-13T20:42:08.961Z,20.50
2023-03-13T20:47:11.922Z,20.50
2023-03-13T20:52:16.288Z,19.00
2023-03-13T20:57:19.756Z,20.25
2023-03-13T21:02:22.848Z,19.50
2023-03-13T21:07:27.387Z,18.25
2023-03-13T21:12:30.469Z,19.00
2023-03-13T21:17:33.228Z,17.75
2023-03-13T21:22:37.343Z,20.50
2023-03-13T21:27:40.188Z,19.25
2023-03-13T21:32:43.196Z,17.00
2023-03-13T21:37:47.550Z,18.75
2023-03-13T21:42:50.473Z,16.50
2023-03-13T21:47:54.918Z,16.80
2023-03-13T21:52:59.133Z,17.00
2023-03-13T21:58:01.925Z,16.60
2023-03-13T22:03:04.827Z,17.40
2023-03-13T22:08:09.089Z,16.00
2023-03-13T22:13:12.048Z,17.00
2023-03-13T22:18:15.023Z,14.80
2023-03-13T22:23:19.215Z,14.60
2023-03-13T22:28:22.146Z,15.60
2023-03-13T22:33:24.931Z,16.60
2023-03-13T22:38:29.044Z,14.00
2023-03-13T22:43:31.956Z,15.00
2023-03-13T22:48:34.785Z,13.60
2023-03-13T22:53:40.003Z,15.00
2023-03-13T22:58:43.183Z,12.40
2023-03-13T23:03:46.293Z,13.00
2023-03-13T23:08:50.473Z,12.00
2023-03-13T23:13:53.423Z,14.00
2023-03-13T23:18:56.546Z,12.00
2023-03-13T23:24:00.668Z,12.00
2023-03-13T23:29:03.452Z,12.60
2023-03-13T23:34:06.271Z,12.20
2023-03-13T23:39:10.466Z,11.00
2023-03-13T23:44:13.271Z,11.40
2023-03-13T23:49:16.357Z,12.00
2023-03-13T23:54:21.640Z,10.60
2023-03-13T23:59:24.673Z,12.00
